createdAt,value
2023-02-08T00:01:33.557Z,56.40
2023-02-08T00:04:02.367Z,58.80
2023-02-08T00:06:30.905Z,55.00
2023-02-08T00:09:00.130Z,57.30
2023-02-08T00:11:28.484Z,61.30
2023-02-08T00:13:56.720Z,66.40
2023-02-08T00:16:25.194Z,72.70
2023-02-08T00:18:53.718Z,71.10
2023-02-08T00:21:22.725Z,71.60
2023-02-08T00:23:51.317Z,72.10
2023-02-08T00:26:20.051Z,70.50
2023-02-08T00:28:48.250Z,67.20
2023-02-08T00:31:16.664Z,71.20
2023-02-08T00:33:45.991Z,72.70
2023-02-08T00:36:14.437Z,67.30
2023-02-08T00:38:42.834Z,68.60
2023-02-08T00:41:11.654Z,77.00
2023-02-08T00:43:40.145Z,62.60
2023-02-08T00:46:09.854Z,70.80
2023-02-08T00:48:38.271Z,55.60
2023-02-08T00:51:13.940Z,57.60
2023-02-08T00:53:45.606Z,59.30
2023-02-08T00:56:16.085Z,60.90
2023-02-08T00:58:45.196Z,58.00
2023-02-08T01:01:14.546Z,58.50
2023-02-08T01:03:45.707Z,53.00
2023-02-08T01:06:17.075Z,51.90
2023-02-08T01:08:45.529Z,50.60
2023-02-08T01:11:18.685Z,55.00
2023-02-08T01:13:47.267Z,52.80
2023-02-08T01:16:21.692Z,55.90
2023-02-08T01:18:52.750Z,48.70
2023-02-08T01:21:24.395Z,45.30
2023-02-08T01:23:53.312Z,45.70
2023-02-08T01:26:22.898Z,47.10
2023-02-08T01:28:52.249Z,44.60
2023-02-08T01:31:42.318Z,48.30
2023-02-08T01:34:12.876Z,45.50
2023-02-08T01:36:41.466Z,47.60
2023-02-08T01:39:11.351Z,44.40
2023-02-08T01:41:44.572Z,45.30
2023-02-08T01:44:12.827Z,46.10
2023-02-08T01:46:51.518Z,43.40
2023-02-08T01:49:33.697Z,46.10
2023-02-08T01:52:22.922Z,45.90
2023-02-08T01:54:53.777Z,42.20
2023-02-08T01:57:23.478Z,38.40
2023-02-08T02:00:14.382Z,39.50
2023-02-08T02:02:44.445Z,41.10
2023-02-08T02:05:13.770Z,40.40
2023-02-08T02:07:42.617Z,38.20
2023-02-08T02:10:16.442Z,39.20
2023-02-08T02:12:46.344Z,39.50
2023-02-08T02:15:14.569Z,36.50
2023-02-08T02:17:43.322Z,36.50
2023-02-08T02:20:27.226Z,39.30
2023-02-08T02:23:17.802Z,38.80
2023-02-08T02:26:23.757Z,34.80
2023-02-08T02:29:33.290Z,31.80
2023-02-08T02:32:20.233Z,35.70
2023-02-08T02:35:02.118Z,35.30
2023-02-08T02:37:31.969Z,33.50
2023-02-08T02:40:08.999Z,32.00
2023-02-08T02:43:27.450Z,33.20
2023-02-08T02:46:06.297Z,31.70
2023-02-08T02:49:06.563Z,30.90
2023-02-08T02:51:48.144Z,25.80
2023-02-08T02:54:51.396Z,23.60
2023-02-08T02:57:27.529Z,22.60
2023-02-08T02:59:58.005Z,25.40
2023-02-08T03:02:28.531Z,23.20
2023-02-08T03:04:58.078Z,20.00
2023-02-08T03:07:55.863Z,20.10
2023-02-08T03:10:41.220Z,17.80
2023-02-08T03:13:25.861Z,18.40
2023-02-08T03:16:16.336Z,17.40
2023-02-08T03:19:12.106Z,18.60
2023-02-08T03:21:58.515Z,15.80
2023-02-08T03:24:32.228Z,18.00
2023-02-08T03:27:18.339Z,16.70
2023-02-08T03:30:02.820Z,14.20
2023-02-08T03:32:42.867Z,16.40
2023-02-08T03:35:27.193Z,16.00
2023-02-08T03:38:02.395Z,14.60
2023-02-08T03:40:44.897Z,15.20
2023-02-08T03:43:22.529Z,16.80
2023-02-08T03:46:14.196Z,14.10
2023-02-08T03:48:48.387Z,15.60
2023-02-08T03:51:18.564Z,15.10
2023-02-08T03:53:49.291Z,18.50
2023-02-08T03:56:23.152Z,16.30
2023-02-08T03:59:05.055Z,14.60
2023-02-08T04:01:41.881Z,14.20
2023-02-08T04:04:12.912Z,16.50
2023-02-08T04:06:41.511Z,14.20
2023-02-08T04:09:10.829Z,15.80
2023-02-08T04:11:41.603Z,16.40
2023-02-08T04:14:09.698Z,15.00
2023-02-08T04:19:37.310Z,19.70
2023-02-08T04:22:05.484Z,14.90
2023-02-08T04:24:33.827Z,15.20
2023-02-08T04:27:03.469Z,15.60
2023-02-08T04:29:33.339Z,14.10
2023-02-08T04:32:01.671Z,15.20
2023-02-08T04:34:30.282Z,16.20
2023-02-08T04:36:58.585Z,19.50
2023-02-08T04:39:26.855Z,19.10
2023-02-08T04:41:55.033Z,18.10
2023-02-08T04:44:23.751Z,17.00
2023-02-08T04:46:52.553Z,19.30
2023-02-08T04:49:20.820Z,17.80
2023-02-08T04:51:52.221Z,20.20
2023-02-08T04:54:20.538Z,22.10
2023-02-08T04:56:49.091Z,22.00
2023-02-08T04:59:17.456Z,23.40
2023-02-08T05:01:49.037Z,22.60
2023-02-08T05:04:18.645Z,20.50
2023-02-08T05:06:48.481Z,18.70
2023-02-08T05:09:17.817Z,20.90
2023-02-08T05:11:46.156Z,21.60
2023-02-08T05:14:14.366Z,23.70
2023-02-08T05:16:42.667Z,28.90
2023-02-08T05:19:14.640Z,28.00
2023-02-08T05:21:42.974Z,23.70
2023-02-08T05:24:12.841Z,22.10
2023-02-08T05:26:42.184Z,23.30
2023-02-08T05:29:13.251Z,22.70
2023-02-08T05:31:41.546Z,25.10
2023-02-08T05:34:09.943Z,25.60
2023-02-08T05:36:38.380Z,24.40
2023-02-08T05:39:08.162Z,25.10
2023-02-08T05:41:37.129Z,25.70
2023-02-08T05:44:05.532Z,28.30
2023-02-08T05:46:34.643Z,28.00
2023-02-08T05:49:03.739Z,29.40
2023-02-08T05:51:32.261Z,29.20
2023-02-08T05:54:00.563Z,31.50
2023-02-08T05:56:29.086Z,28.10
2023-02-08T05:58:57.773Z,27.80
2023-02-08T06:01:26.262Z,29.40
2023-02-08T06:03:55.301Z,28.30
2023-02-08T06:06:24.168Z,31.50
2023-02-08T06:08:52.542Z,42.20
2023-02-08T06:11:20.800Z,41.10
2023-02-08T06:13:49.093Z,37.40
2023-02-08T06:16:19.893Z,40.00
2023-02-08T06:18:48.996Z,40.90
2023-02-08T06:21:18.010Z,45.10
2023-02-08T06:23:47.556Z,44.30
2023-02-08T06:26:15.853Z,44.50
2023-02-08T06:28:47.645Z,54.10
2023-02-08T06:31:16.163Z,52.80
2023-02-08T06:33:44.562Z,58.80
2023-02-08T06:36:12.805Z,45.70
2023-02-08T06:38:41.225Z,42.40
2023-02-08T06:41:09.404Z,40.10
2023-02-08T06:43:41.004Z,33.00
2023-02-08T06:46:09.605Z,33.40
2023-02-08T06:48:39.173Z,30.10
2023-02-08T06:51:08.111Z,34.60
2023-02-08T06:53:36.439Z,32.00
2023-02-08T06:56:05.032Z,33.00
2023-02-08T06:58:33.283Z,36.10
2023-02-08T07:01:01.640Z,36.40
2023-02-08T07:03:30.019Z,37.60
2023-02-08T07:06:04.954Z,31.60
2023-02-08T07:08:36.791Z,31.50
2023-02-08T07:11:13.709Z,27.70
2023-02-08T07:13:45.051Z,30.40
2023-02-08T07:16:20.245Z,26.50
2023-02-08T07:18:50.527Z,28.20
2023-02-08T07:21:19.082Z,29.70
2023-02-08T07:23:47.752Z,31.20
2023-02-08T07:26:17.247Z,28.30
2023-02-08T07:28:45.617Z,32.50
2023-02-08T07:31:17.119Z,37.80
2023-02-08T07:33:45.628Z,33.50
2023-02-08T07:36:14.333Z,41.50
2023-02-08T07:38:42.721Z,40.30
2023-02-08T07:41:14.599Z,36.20
2023-02-08T07:43:43.620Z,34.80
2023-02-08T07:46:18.295Z,52.60
2023-02-08T07:48:46.883Z,65.70
2023-02-08T07:51:17.927Z,34.50
2023-02-08T07:53:46.378Z,41.30
2023-02-08T07:56:14.728Z,51.80
2023-02-08T07:58:43.262Z,37.10
2023-02-08T08:01:22.056Z,36.80
2023-02-08T08:03:52.223Z,38.30
2023-02-08T08:06:22.318Z,51.90
2023-02-08T08:08:51.289Z,59.00
2023-02-08T08:11:24.260Z,42.80
2023-02-08T08:13:54.407Z,37.30
2023-02-08T08:16:22.837Z,43.00
2023-02-08T08:18:51.109Z,44.90
2023-02-08T08:21:20.124Z,45.10
2023-02-08T08:23:48.486Z,44.20
2023-02-08T08:26:20.773Z,44.40
2023-02-08T08:28:49.183Z,45.10
2023-02-08T08:31:21.334Z,46.30
2023-02-08T08:33:50.599Z,44.90
2023-02-08T08:36:19.229Z,59.40
2023-02-08T08:38:47.438Z,58.90
2023-02-08T08:41:18.321Z,60.00
2023-02-08T08:43:47.298Z,45.90
2023-02-08T08:46:20.058Z,60.50
2023-02-08T08:48:48.966Z,47.70
2023-02-08T08:51:17.434Z,43.40
2023-02-08T08:53:46.001Z,45.00
2023-02-08T08:56:14.392Z,45.30
2023-02-08T08:58:44.403Z,47.20
2023-02-08T09:01:14.679Z,46.40
2023-02-08T09:03:43.322Z,48.40
2023-02-08T09:06:11.833Z,47.80
2023-02-08T09:08:40.900Z,47.40
2023-02-08T09:11:11.748Z,44.90
